createdAt,value
2023-01-13T00:00:05.911Z,629.60
2023-01-13T00:00:15.925Z,629.22
2023-01-13T00:00:25.950Z,629.39
2023-01-13T00:00:36.073Z,630.13
2023-01-13T00:00:45.918Z,629.64
2023-01-13T00:00:55.873Z,629.73
2023-01-13T00:01:05.878Z,629.71
2023-01-13T00:01:15.881Z,629.84
2023-01-13T00:01:25.890Z,629.19
2023-01-13T00:01:35.880Z,629.79
2023-01-13T00:01:45.878Z,630.45
2023-01-13T00:01:55.886Z,630.39
2023-01-13T00:02:05.916Z,629.82
2023-01-13T00:02:15.892Z,629.81
2023-01-13T00:02:25.945Z,630.18
2023-01-13T00:02:35.922Z,630.26
2023-01-13T00:02:45.944Z,630.14
2023-01-13T00:02:55.891Z,630.27
2023-01-13T00:03:05.901Z,630.27
2023-01-13T00:03:15.888Z,629.55
2023-01-13T00:03:25.888Z,630.72
2023-01-13T00:03:35.915Z,630.10
2023-01-13T00:03:45.904Z,630.80
2023-01-13T00:03:55.892Z,630.64
2023-01-13T00:04:05.907Z,630.26
2023-01-13T00:04:15.919Z,630.10
2023-01-13T00:04:25.923Z,630.16
2023-01-13T00:04:36.012Z,630.26
2023-01-13T00:04:45.933Z,630.34
2023-01-13T00:04:55.988Z,630.26
2023-01-13T00:05:05.981Z,630.34
2023-01-13T00:05:15.898Z,630.03
2023-01-13T00:05:25.909Z,629.88
2023-01-13T00:05:35.901Z,630.59
2023-01-13T00:05:45.903Z,630.77
2023-01-13T00:05:55.902Z,630.62
2023-01-13T00:06:05.913Z,630.81
2023-01-13T00:06:15.903Z,630.56
2023-01-13T00:06:25.924Z,630.44
2023-01-13T00:06:35.907Z,630.52
2023-01-13T00:06:45.908Z,630.30
2023-01-13T00:06:55.905Z,630.19
2023-01-13T00:07:05.907Z,630.46
2023-01-13T00:07:15.908Z,630.63
2023-01-13T00:07:25.908Z,630.49
2023-01-13T00:07:35.909Z,630.41
2023-01-13T00:07:45.909Z,630.16
2023-01-13T00:07:55.920Z,630.32
2023-01-13T00:08:05.910Z,630.58
2023-01-13T00:08:15.912Z,630.18
2023-01-13T00:08:25.912Z,630.77
2023-01-13T00:08:35.929Z,630.70
2023-01-13T00:08:45.915Z,630.67
2023-01-13T00:08:55.925Z,630.71
2023-01-13T00:09:05.902Z,630.67
2023-01-13T00:09:15.928Z,630.74
2023-01-13T00:09:25.914Z,630.76
2023-01-13T00:09:35.926Z,630.69
2023-01-13T00:09:45.918Z,630.69
2023-01-13T00:09:55.930Z,630.66
2023-01-13T00:10:05.920Z,630.69
2023-01-13T00:10:15.920Z,630.58
2023-01-13T00:10:25.926Z,630.54
2023-01-13T00:10:35.921Z,630.73
2023-01-13T00:10:45.927Z,630.91
2023-01-13T00:10:55.924Z,630.50
2023-01-13T00:11:05.929Z,630.66
2023-01-13T00:11:15.933Z,630.51
2023-01-13T00:11:25.928Z,630.32
2023-01-13T00:11:35.933Z,630.16
2023-01-13T00:11:45.937Z,630.57
2023-01-13T00:11:55.936Z,630.67
2023-01-13T00:12:05.934Z,630.73
2023-01-13T00:12:15.934Z,630.46
2023-01-13T00:12:25.931Z,630.78
2023-01-13T00:12:35.935Z,630.63
2023-01-13T00:12:45.933Z,630.79
2023-01-13T00:12:55.934Z,630.16
2023-01-13T00:13:05.933Z,630.60
2023-01-13T00:13:15.933Z,630.73
2023-01-13T00:13:25.937Z,630.83
2023-01-13T00:13:35.936Z,630.68
2023-01-13T00:13:45.942Z,630.51
2023-01-13T00:13:55.954Z,630.57
2023-01-13T00:14:05.919Z,630.62
2023-01-13T00:14:15.979Z,630.69
2023-01-13T00:14:25.941Z,630.55
2023-01-13T00:14:35.942Z,630.74
2023-01-13T00:14:45.953Z,630.46
2023-01-13T00:14:55.951Z,630.53
2023-01-13T00:15:05.954Z,630.82
2023-01-13T00:15:15.951Z,630.94
2023-01-13T00:15:25.949Z,630.83
2023-01-13T00:15:35.995Z,630.48
2023-01-13T00:15:45.970Z,630.79
2023-01-13T00:15:56.013Z,631.07
2023-01-13T00:16:05.987Z,631.12
2023-01-13T00:16:15.981Z,630.85
2023-01-13T00:16:25.957Z,630.78
2023-01-13T00:16:35.948Z,631.04
2023-01-13T00:16:45.955Z,631.00
2023-01-13T00:16:55.956Z,631.10
2023-01-13T00:17:05.971Z,630.80
2023-01-13T00:17:15.951Z,631.04
2023-01-13T00:17:25.952Z,630.78
2023-01-13T00:17:35.955Z,631.29
2023-01-13T00:17:45.953Z,631.04
2023-01-13T00:17:55.956Z,630.87
2023-01-13T00:18:05.956Z,631.29
2023-01-13T00:18:15.971Z,630.97
2023-01-13T00:18:25.961Z,631.05
2023-01-13T00:18:35.956Z,631.07
2023-01-13T00:18:45.958Z,630.61
2023-01-13T00:18:55.966Z,631.06
2023-01-13T00:19:05.962Z,631.34
2023-01-13T00:19:15.971Z,631.42
2023-01-13T00:19:25.967Z,631.33
2023-01-13T00:19:35.963Z,631.23
2023-01-13T00:19:45.963Z,630.96
2023-01-13T00:19:55.967Z,631.14
2023-01-13T00:20:05.967Z,631.20
2023-01-13T00:20:15.967Z,631.23
2023-01-13T00:20:25.972Z,631.09
2023-01-13T00:20:35.971Z,630.94
2023-01-13T00:20:45.971Z,631.00
2023-01-13T00:20:55.969Z,631.28
2023-01-13T00:21:05.971Z,631.51
2023-01-13T00:21:15.988Z,631.42
2023-01-13T00:21:25.974Z,631.29
2023-01-13T00:21:35.977Z,631.44
2023-01-13T00:21:45.974Z,631.39
2023-01-13T00:21:55.975Z,631.13
2023-01-13T00:22:05.986Z,631.14
2023-01-13T00:22:15.977Z,631.31
2023-01-13T00:22:25.982Z,631.62
2023-01-13T00:22:35.994Z,631.41
2023-01-13T00:22:45.980Z,631.64
2023-01-13T00:22:55.980Z,631.54
2023-01-13T00:23:05.981Z,631.05
2023-01-13T00:23:15.970Z,631.04
2023-01-13T00:23:25.985Z,630.87
2023-01-13T00:23:35.991Z,631.20
2023-01-13T00:23:46.000Z,630.82
2023-01-13T00:23:55.983Z,630.85
2023-01-13T00:24:05.988Z,631.10
2023-01-13T00:24:15.985Z,630.97
2023-01-13T00:24:25.989Z,630.98
2023-01-13T00:24:35.994Z,631.17
2023-01-13T00:24:45.989Z,631.31
2023-01-13T00:24:55.992Z,631.12
2023-01-13T00:25:05.991Z,631.19
2023-01-13T00:25:15.987Z,631.36
2023-01-13T00:25:25.992Z,631.31
2023-01-13T00:25:35.993Z,631.18
2023-01-13T00:25:45.993Z,631.12
2023-01-13T00:25:55.999Z,631.13
2023-01-13T00:26:05.995Z,631.29
2023-01-13T00:26:15.993Z,630.97
2023-01-13T00:26:25.999Z,631.22
2023-01-13T00:26:36.026Z,631.38
2023-01-13T00:26:45.995Z,631.24
2023-01-13T00:26:56.000Z,631.17
2023-01-13T00:27:05.997Z,631.45
2023-01-13T00:27:15.998Z,631.32
2023-01-13T00:27:26.000Z,631.10
2023-01-13T00:27:36.000Z,631.25
2023-01-13T00:27:46.002Z,631.10
2023-01-13T00:27:56.000Z,631.03
2023-01-13T00:28:06.002Z,630.66
2023-01-13T00:28:16.001Z,630.67
2023-01-13T00:28:26.004Z,630.72
2023-01-13T00:28:36.004Z,631.15
2023-01-13T00:28:45.989Z,630.98
2023-01-13T00:28:56.008Z,630.94
2023-01-13T00:29:06.004Z,630.63
2023-01-13T00:29:16.006Z,631.21
2023-01-13T00:29:26.008Z,631.03
2023-01-13T00:29:36.008Z,630.76
2023-01-13T00:29:46.008Z,631.28
2023-01-13T00:29:56.008Z,631.55
2023-01-13T00:30:06.012Z,631.21
2023-01-13T00:30:16.006Z,631.28
2023-01-13T00:30:26.012Z,631.27
2023-01-13T00:30:36.010Z,631.31
2023-01-13T00:30:46.011Z,630.95
2023-01-13T00:30:56.042Z,631.40
2023-01-13T00:31:06.107Z,631.17
2023-01-13T00:31:16.061Z,631.48
2023-01-13T00:31:26.061Z,631.10
2023-01-13T00:31:36.043Z,631.14
2023-01-13T00:31:46.013Z,631.28
2023-01-13T00:31:56.012Z,631.25
2023-01-13T00:32:06.020Z,631.41
2023-01-13T00:32:16.032Z,631.48
2023-01-13T00:32:26.000Z,631.42
2023-01-13T00:32:36.020Z,631.29
2023-01-13T00:32:46.015Z,631.37
2023-01-13T00:32:56.014Z,631.60
2023-01-13T00:33:06.026Z,631.49
2023-01-13T00:33:16.015Z,631.52
2023-01-13T00:33:26.019Z,631.57
2023-01-13T00:33:36.036Z,631.37
2023-01-13T00:33:46.031Z,631.40
2023-01-13T00:33:56.025Z,631.56
2023-01-13T00:34:06.019Z,631.48
2023-01-13T00:34:16.018Z,631.71
2023-01-13T00:34:26.040Z,631.55
2023-01-13T00:34:36.025Z,631.53
2023-01-13T00:34:46.022Z,631.20
2023-01-13T00:34:56.007Z,631.20
2023-01-13T00:35:06.026Z,631.62
2023-01-13T00:35:16.026Z,632.00
2023-01-13T00:35:26.029Z,632.21
2023-01-13T00:35:36.031Z,632.12
2023-01-13T00:35:46.029Z,631.98
2023-01-13T00:35:56.033Z,632.03
2023-01-13T00:36:06.027Z,631.70
2023-01-13T00:36:16.038Z,631.53
2023-01-13T00:36:26.033Z,631.63
2023-01-13T00:36:36.036Z,632.02
2023-01-13T00:36:46.042Z,631.95
2023-01-13T00:36:56.036Z,631.78
2023-01-13T00:37:06.035Z,631.74
2023-01-13T00:37:16.036Z,632.00
2023-01-13T00:37:26.044Z,632.17
2023-01-13T00:37:36.038Z,631.57
2023-01-13T00:37:46.039Z,631.54
2023-01-13T00:37:56.039Z,631.29
2023-01-13T00:38:06.070Z,631.71
2023-01-13T00:38:16.043Z,631.48
2023-01-13T00:38:26.039Z,631.62
2023-01-13T00:38:36.060Z,631.62
2023-01-13T00:38:46.037Z,631.83
2023-01-13T00:38:56.047Z,631.96
2023-01-13T00:39:06.041Z,631.78
2023-01-13T00:39:16.046Z,631.91
2023-01-13T00:39:26.067Z,632.15
2023-01-13T00:39:36.048Z,631.87
2023-01-13T00:39:46.048Z,632.06
2023-01-13T00:39:56.048Z,631.93
2023-01-13T00:40:06.053Z,632.15
2023-01-13T00:40:16.053Z,632.13
2023-01-13T00:40:26.045Z,631.48
2023-01-13T00:40:36.049Z,630.79
2023-01-13T00:40:46.050Z,631.90
2023-01-13T00:40:56.050Z,632.45
2023-01-13T00:41:06.052Z,632.54
2023-01-13T00:41:16.057Z,632.07
2023-01-13T00:41:26.062Z,632.03
2023-01-13T00:41:36.054Z,631.74
2023-01-13T00:41:46.052Z,632.55
2023-01-13T00:41:56.053Z,632.33
2023-01-13T00:42:06.065Z,631.57
2023-01-13T00:42:16.054Z,630.95
2023-01-13T00:42:26.059Z,632.37
2023-01-13T00:42:36.057Z,632.31
2023-01-13T00:42:46.056Z,631.55
2023-01-13T00:42:56.055Z,631.84
2023-01-13T00:43:06.057Z,631.69
2023-01-13T00:43:16.058Z,632.18
2023-01-13T00:43:26.057Z,631.94
2023-01-13T00:43:36.063Z,631.98
2023-01-13T00:43:46.080Z,631.89
2023-01-13T00:43:56.064Z,631.83
2023-01-13T00:44:06.069Z,631.76
2023-01-13T00:44:16.065Z,631.78
2023-01-13T00:44:26.084Z,632.02
2023-01-13T00:44:36.069Z,632.10
2023-01-13T00:44:46.078Z,631.87
2023-01-13T00:44:56.064Z,632.07
2023-01-13T00:45:06.064Z,632.15
2023-01-13T00:45:16.075Z,631.94
2023-01-13T00:45:26.071Z,631.86
2023-01-13T00:45:36.054Z,631.84
2023-01-13T00:45:46.075Z,632.15
2023-01-13T00:45:56.063Z,632.18
2023-01-13T00:46:06.203Z,632.10
2023-01-13T00:46:16.128Z,631.90
2023-01-13T00:46:26.097Z,632.18
2023-01-13T00:46:36.102Z,632.36
2023-01-13T00:46:46.135Z,632.04
2023-01-13T00:46:56.080Z,632.72
2023-01-13T00:47:06.069Z,632.61
2023-01-13T00:47:16.086Z,632.56
2023-01-13T00:47:26.079Z,632.13
2023-01-13T00:47:36.090Z,632.32
2023-01-13T00:47:46.078Z,632.42
2023-01-13T00:47:56.077Z,632.34
2023-01-13T00:48:06.082Z,632.44
2023-01-13T00:48:16.087Z,632.39
2023-01-13T00:48:26.081Z,632.38
2023-01-13T00:48:36.085Z,631.89
2023-01-13T00:48:46.084Z,632.65
2023-01-13T00:48:56.086Z,632.50
2023-01-13T00:49:06.087Z,633.00
2023-01-13T00:49:16.105Z,632.86
2023-01-13T00:49:26.133Z,632.72
2023-01-13T00:49:36.091Z,632.56
2023-01-13T00:49:46.090Z,632.58
2023-01-13T00:49:56.097Z,632.54
2023-01-13T00:50:06.092Z,632.71
2023-01-13T00:50:16.094Z,633.01
2023-01-13T00:50:26.093Z,632.80
2023-01-13T00:50:36.093Z,632.93
2023-01-13T00:50:46.093Z,633.23
2023-01-13T00:50:56.100Z,633.20
2023-01-13T00:51:06.095Z,632.90
2023-01-13T00:51:16.094Z,632.74
2023-01-13T00:51:26.098Z,633.03
2023-01-13T00:51:36.096Z,633.11
2023-01-13T00:51:46.099Z,633.05
2023-01-13T00:51:56.098Z,632.90
2023-01-13T00:52:06.103Z,633.12
2023-01-13T00:52:16.099Z,633.17
2023-01-13T00:52:26.099Z,633.09
2023-01-13T00:52:36.102Z,633.48
2023-01-13T00:52:46.109Z,633.16
2023-01-13T00:52:56.099Z,632.90
2023-01-13T00:53:06.101Z,633.24
2023-01-13T00:53:16.103Z,632.75
2023-01-13T00:53:26.101Z,632.57
2023-01-13T00:53:36.122Z,633.24
2023-01-13T00:53:46.104Z,633.40
2023-01-13T00:53:56.105Z,632.89
2023-01-13T00:54:06.112Z,633.24
2023-01-13T00:54:16.105Z,632.91
2023-01-13T00:54:26.112Z,632.69
2023-01-13T00:54:36.113Z,633.37
2023-01-13T00:54:46.107Z,633.38
2023-01-13T00:54:56.108Z,633.04
2023-01-13T00:55:06.122Z,632.87
2023-01-13T00:55:16.112Z,633.27
2023-01-13T00:55:26.112Z,632.49
2023-01-13T00:55:36.111Z,633.09
2023-01-13T00:55:46.118Z,633.03
2023-01-13T00:55:56.114Z,633.19
2023-01-13T00:56:06.113Z,633.14
2023-01-13T00:56:16.886Z,633.11
2023-01-13T00:56:39.572Z,633.30
2023-01-13T00:56:40.558Z,633.15
2023-01-13T00:56:46.119Z,633.08
2023-01-13T00:56:56.126Z,632.72
2023-01-13T00:57:06.121Z,632.43
2023-01-13T00:57:16.123Z,632.91
2023-01-13T00:57:26.118Z,632.51
2023-01-13T00:57:36.129Z,632.86
2023-01-13T00:57:46.120Z,632.69
2023-01-13T00:57:56.127Z,632.62
2023-01-13T00:58:06.125Z,632.92
2023-01-13T00:58:16.126Z,633.02
2023-01-13T00:58:26.134Z,632.86
2023-01-13T00:58:36.129Z,633.17
2023-01-13T00:58:46.126Z,633.13
2023-01-13T00:58:56.124Z,633.08
2023-01-13T00:59:06.144Z,632.80
2023-01-13T00:59:16.106Z,632.86
2023-01-13T00:59:26.137Z,632.92
2023-01-13T00:59:36.128Z,632.70
2023-01-13T00:59:47.175Z,632.73
2023-01-13T00:59:56.146Z,632.81
2023-01-13T01:00:06.130Z,632.79
2023-01-13T01:00:16.132Z,633.03
2023-01-13T01:00:26.134Z,632.93
2023-01-13T01:00:36.161Z,633.19
2023-01-13T01:00:46.174Z,633.30
2023-01-13T01:00:56.269Z,633.39
2023-01-13T01:01:06.288Z,633.64
2023-01-13T01:01:16.281Z,633.64
2023-01-13T01:01:26.256Z,633.25
2023-01-13T01:01:36.257Z,633.35
2023-01-13T01:01:46.317Z,633.68
2023-01-13T01:01:56.298Z,633.83
2023-01-13T01:02:06.288Z,633.98
2023-01-13T01:02:16.264Z,633.86
2023-01-13T01:02:26.210Z,634.09
2023-01-13T01:02:36.293Z,633.99
2023-01-13T01:02:46.195Z,633.59
2023-01-13T01:02:56.139Z,633.86
2023-01-13T01:03:06.141Z,634.16
2023-01-13T01:03:16.142Z,633.87
2023-01-13T01:03:26.143Z,633.69
2023-01-13T01:03:36.145Z,633.58
2023-01-13T01:03:46.143Z,633.56
2023-01-13T01:03:56.143Z,633.55
2023-01-13T01:04:06.146Z,633.70
2023-01-13T01:04:16.128Z,633.64
2023-01-13T01:04:26.160Z,633.60
2023-01-13T01:04:36.152Z,633.58
2023-01-13T01:04:46.147Z,633.79
2023-01-13T01:04:56.150Z,633.87
2023-01-13T01:05:06.163Z,633.85
2023-01-13T01:05:16.151Z,633.52
2023-01-13T01:05:26.158Z,633.79
2023-01-13T01:05:36.154Z,633.90
2023-01-13T01:05:46.167Z,633.93
2023-01-13T01:05:56.158Z,633.63
2023-01-13T01:06:06.161Z,634.26
2023-01-13T01:06:16.168Z,633.93
2023-01-13T01:06:26.159Z,634.02
2023-01-13T01:06:36.163Z,633.94
2023-01-13T01:06:46.144Z,633.93
2023-01-13T01:06:56.177Z,633.07
2023-01-13T01:07:06.161Z,634.16
2023-01-13T01:07:16.165Z,634.15
2023-01-13T01:07:26.154Z,633.98
2023-01-13T01:07:36.165Z,634.11
2023-01-13T01:07:46.164Z,634.30
2023-01-13T01:07:56.166Z,634.14
2023-01-13T01:08:06.167Z,634.09
2023-01-13T01:08:16.170Z,634.19
2023-01-13T01:08:26.167Z,634.21
2023-01-13T01:08:36.169Z,634.09
2023-01-13T01:08:46.175Z,634.26
2023-01-13T01:08:56.189Z,634.24
2023-01-13T01:09:06.170Z,634.08
2023-01-13T01:09:16.172Z,634.05
2023-01-13T01:09:26.195Z,634.05
2023-01-13T01:09:36.181Z,633.85
2023-01-13T01:09:46.174Z,634.18
2023-01-13T01:09:56.179Z,634.27
2023-01-13T01:10:06.184Z,634.04
2023-01-13T01:10:16.179Z,634.30
2023-01-13T01:10:26.183Z,634.37
2023-01-13T01:10:36.177Z,634.22
2023-01-13T01:10:46.176Z,634.42
2023-01-13T01:10:56.177Z,634.23
2023-01-13T01:11:06.184Z,634.65
2023-01-13T01:11:16.184Z,634.71
2023-01-13T01:11:26.200Z,634.76
2023-01-13T01:11:36.178Z,634.36
2023-01-13T01:11:46.185Z,634.37
2023-01-13T01:11:56.183Z,634.60
2023-01-13T01:12:06.183Z,634.47
2023-01-13T01:12:16.184Z,634.45
2023-01-13T01:12:26.199Z,634.51
2023-01-13T01:12:36.185Z,634.38
2023-01-13T01:12:46.187Z,634.56
2023-01-13T01:12:56.200Z,634.21
2023-01-13T01:13:06.190Z,634.47
2023-01-13T01:13:16.198Z,634.67
2023-01-13T01:13:26.189Z,634.38
2023-01-13T01:13:36.187Z,634.27
2023-01-13T01:13:46.191Z,634.28
2023-01-13T01:13:56.199Z,634.29
2023-01-13T01:14:06.196Z,634.54
2023-01-13T01:14:16.195Z,634.38
2023-01-13T01:14:26.232Z,634.02
2023-01-13T01:14:36.180Z,634.24
2023-01-13T01:14:46.195Z,634.39
2023-01-13T01:14:56.206Z,634.14
2023-01-13T01:15:06.201Z,634.63
2023-01-13T01:15:16.229Z,634.07
2023-01-13T01:15:26.204Z,633.96
2023-01-13T01:15:36.199Z,634.06
2023-01-13T01:15:46.253Z,634.56
2023-01-13T01:15:56.244Z,634.28
2023-01-13T01:16:06.220Z,634.27
2023-01-13T01:16:16.238Z,634.17
2023-01-13T01:16:26.386Z,634.29
2023-01-13T01:16:36.212Z,633.83
2023-01-13T01:16:46.194Z,634.28
2023-01-13T01:16:56.216Z,633.99
2023-01-13T01:17:06.204Z,633.87
2023-01-13T01:17:16.226Z,633.83
2023-01-13T01:17:26.208Z,633.82
2023-01-13T01:17:36.195Z,634.23
2023-01-13T01:17:46.212Z,634.55
2023-01-13T01:17:56.211Z,634.44
2023-01-13T01:18:06.210Z,634.11
2023-01-13T01:18:16.213Z,634.11
2023-01-13T01:18:26.216Z,634.16
2023-01-13T01:18:36.213Z,634.18
2023-01-13T01:18:46.219Z,633.93
2023-01-13T01:18:56.218Z,634.81
2023-01-13T01:19:06.218Z,634.61
2023-01-13T01:19:16.229Z,634.69
2023-01-13T01:19:26.238Z,634.29
2023-01-13T01:19:36.226Z,634.28
2023-01-13T01:19:46.224Z,634.33
2023-01-13T01:19:56.222Z,634.39
2023-01-13T01:20:06.231Z,634.40
2023-01-13T01:20:16.221Z,634.29
2023-01-13T01:20:26.220Z,634.09
2023-01-13T01:20:36.221Z,634.08
2023-01-13T01:20:46.224Z,634.08
2023-01-13T01:20:56.222Z,633.56
2023-01-13T01:21:06.222Z,634.31
2023-01-13T01:21:16.227Z,634.43
2023-01-13T01:21:26.223Z,634.26
2023-01-13T01:21:36.225Z,634.09
2023-01-13T01:21:46.228Z,633.96
2023-01-13T01:21:56.233Z,633.78
2023-01-13T01:22:06.236Z,634.02
2023-01-13T01:22:16.212Z,634.09
2023-01-13T01:22:26.223Z,634.09
2023-01-13T01:22:36.210Z,634.18
2023-01-13T01:22:46.232Z,634.00
2023-01-13T01:22:56.231Z,633.93
2023-01-13T01:23:06.229Z,633.97
2023-01-13T01:23:16.230Z,634.19
2023-01-13T01:23:26.231Z,634.30
2023-01-13T01:23:36.239Z,634.01
2023-01-13T01:23:46.248Z,633.90
2023-01-13T01:23:56.242Z,633.98
2023-01-13T01:24:06.215Z,634.01
2023-01-13T01:24:16.234Z,633.75
2023-01-13T01:24:26.269Z,634.32
2023-01-13T01:24:36.230Z,634.19
2023-01-13T01:24:46.246Z,634.14
2023-01-13T01:24:56.239Z,634.15
2023-01-13T01:25:06.238Z,634.28
2023-01-13T01:25:16.240Z,633.94
2023-01-13T01:25:26.246Z,634.39
2023-01-13T01:25:36.241Z,633.54
2023-01-13T01:25:46.222Z,634.47
2023-01-13T01:25:56.248Z,634.70
2023-01-13T01:26:06.237Z,634.64
2023-01-13T01:26:16.238Z,634.69
2023-01-13T01:26:26.257Z,634.80
2023-01-13T01:26:36.241Z,634.68
2023-01-13T01:26:46.242Z,634.55
2023-01-13T01:26:56.242Z,634.24
2023-01-13T01:27:06.254Z,634.70
2023-01-13T01:27:16.246Z,634.83
2023-01-13T01:27:26.250Z,634.69
2023-01-13T01:27:36.248Z,634.63
2023-01-13T01:27:46.250Z,634.85
2023-01-13T01:27:56.247Z,634.73
2023-01-13T01:28:06.250Z,634.54
2023-01-13T01:28:16.248Z,634.51
2023-01-13T01:28:26.264Z,634.56
2023-01-13T01:28:36.249Z,634.45
2023-01-13T01:28:46.254Z,634.79
2023-01-13T01:28:56.254Z,634.85
2023-01-13T01:29:06.236Z,634.83
2023-01-13T01:29:16.266Z,634.38
2023-01-13T01:29:26.253Z,634.30
2023-01-13T01:29:36.258Z,634.45
2023-01-13T01:29:46.254Z,634.14
2023-01-13T01:29:56.258Z,634.30
2023-01-13T01:30:06.279Z,634.75
2023-01-13T01:30:16.260Z,634.68
2023-01-13T01:30:26.261Z,634.42
2023-01-13T01:30:36.259Z,634.48
2023-01-13T01:30:46.261Z,634.29
2023-01-13T01:30:56.260Z,634.34
2023-01-13T01:31:06.298Z,634.67
2023-01-13T01:31:16.287Z,634.77
2023-01-13T01:31:26.303Z,634.76
2023-01-13T01:31:36.293Z,634.73
2023-01-13T01:31:46.297Z,634.50
2023-01-13T01:31:56.263Z,634.29
2023-01-13T01:32:06.275Z,634.55
2023-01-13T01:32:16.264Z,634.52
2023-01-13T01:32:26.267Z,634.61
2023-01-13T01:32:36.271Z,634.32
2023-01-13T01:32:46.271Z,634.49
2023-01-13T01:32:56.272Z,634.48
2023-01-13T01:33:06.269Z,634.61
2023-01-13T01:33:16.270Z,634.58
2023-01-13T01:33:26.271Z,634.71
2023-01-13T01:33:36.270Z,634.66
2023-01-13T01:33:46.283Z,634.60
2023-01-13T01:33:56.270Z,634.48
2023-01-13T01:34:06.275Z,634.67
2023-01-13T01:34:16.274Z,634.40
2023-01-13T01:34:26.305Z,634.46
2023-01-13T01:34:36.275Z,634.33
2023-01-13T01:34:46.282Z,634.39
2023-01-13T01:34:56.275Z,634.28
2023-01-13T01:35:06.276Z,634.57
2023-01-13T01:35:16.279Z,634.78
2023-01-13T01:35:26.283Z,634.49
2023-01-13T01:35:36.290Z,634.43
2023-01-13T01:35:46.282Z,634.62
2023-01-13T01:35:56.296Z,634.69
2023-01-13T01:36:06.283Z,634.25
2023-01-13T01:36:16.293Z,634.34
2023-01-13T01:36:26.305Z,634.19
2023-01-13T01:36:36.286Z,634.16
2023-01-13T01:36:46.297Z,633.96
2023-01-13T01:36:56.289Z,633.94
2023-01-13T01:37:06.284Z,634.26
2023-01-13T01:37:16.285Z,634.34
2023-01-13T01:37:26.292Z,634.22
2023-01-13T01:37:36.289Z,634.43
2023-01-13T01:37:46.295Z,634.14
2023-01-13T01:37:56.320Z,634.15
2023-01-13T01:38:06.303Z,634.42
2023-01-13T01:38:16.293Z,634.57
2023-01-13T01:38:26.298Z,634.74
2023-01-13T01:38:36.297Z,634.84
2023-01-13T01:38:46.298Z,634.80
2023-01-13T01:38:56.297Z,634.60
2023-01-13T01:39:06.314Z,634.59
2023-01-13T01:39:16.309Z,634.71
2023-01-13T01:39:26.291Z,634.65
2023-01-13T01:39:36.313Z,634.51
2023-01-13T01:39:46.300Z,634.61
2023-01-13T01:39:56.298Z,634.82
2023-01-13T01:40:06.304Z,635.01
2023-01-13T01:40:16.298Z,635.05
2023-01-13T01:40:26.307Z,634.89
2023-01-13T01:40:36.300Z,634.67
2023-01-13T01:40:46.301Z,634.69
2023-01-13T01:40:56.281Z,634.15
2023-01-13T01:41:06.305Z,634.50
2023-01-13T01:41:16.303Z,634.53
2023-01-13T01:41:26.316Z,634.64
2023-01-13T01:41:36.306Z,634.81
2023-01-13T01:41:46.305Z,635.13
2023-01-13T01:41:56.304Z,634.88
2023-01-13T01:42:06.313Z,634.71
2023-01-13T01:42:16.308Z,634.55
2023-01-13T01:42:26.316Z,634.85
2023-01-13T01:42:36.306Z,634.76
2023-01-13T01:42:46.309Z,634.69
2023-01-13T01:42:56.309Z,634.66
2023-01-13T01:43:06.325Z,634.47
2023-01-13T01:43:16.313Z,634.54
2023-01-13T01:43:26.311Z,634.57
2023-01-13T01:43:36.314Z,634.59
2023-01-13T01:43:46.313Z,634.58
2023-01-13T01:43:56.316Z,634.39
2023-01-13T01:44:06.316Z,634.28
2023-01-13T01:44:16.314Z,634.29
2023-01-13T01:44:26.328Z,634.29
2023-01-13T01:44:36.318Z,634.71
2023-01-13T01:44:46.320Z,634.54
2023-01-13T01:44:56.326Z,634.85
2023-01-13T01:45:06.322Z,635.39
2023-01-13T01:45:16.330Z,635.73
2023-01-13T01:45:26.328Z,635.36
2023-01-13T01:45:36.329Z,635.24
2023-01-13T01:45:46.326Z,635.02
2023-01-13T01:45:56.328Z,634.80
2023-01-13T01:46:06.331Z,634.88
2023-01-13T01:46:16.353Z,634.61
2023-01-13T01:46:26.380Z,634.62
2023-01-13T01:46:36.363Z,634.55
2023-01-13T01:46:46.380Z,634.63
2023-01-13T01:46:56.391Z,634.60
2023-01-13T01:47:06.363Z,634.97
2023-01-13T01:47:16.334Z,634.69
2023-01-13T01:47:26.353Z,634.69
2023-01-13T01:47:36.337Z,634.79
2023-01-13T01:47:46.338Z,634.65
2023-01-13T01:47:56.337Z,634.75
2023-01-13T01:48:06.349Z,635.02
2023-01-13T01:48:16.339Z,634.93
2023-01-13T01:48:26.343Z,634.90
2023-01-13T01:48:36.344Z,634.97
2023-01-13T01:48:46.349Z,634.86
2023-01-13T01:48:56.346Z,634.84
2023-01-13T01:49:06.346Z,634.89
2023-01-13T01:49:16.346Z,635.02
2023-01-13T01:49:26.374Z,635.08
2023-01-13T01:49:36.363Z,634.90
2023-01-13T01:49:46.355Z,634.93
2023-01-13T01:49:56.350Z,635.20
2023-01-13T01:50:06.356Z,635.05
2023-01-13T01:50:16.352Z,634.99
2023-01-13T01:50:26.352Z,635.05
2023-01-13T01:50:36.352Z,634.87
2023-01-13T01:50:46.357Z,635.20
2023-01-13T01:50:56.357Z,635.23
2023-01-13T01:51:06.362Z,635.07
2023-01-13T01:51:16.363Z,634.97
2023-01-13T01:51:26.357Z,635.03
2023-01-13T01:51:36.369Z,635.12
2023-01-13T01:51:46.357Z,635.00
2023-01-13T01:51:56.360Z,634.85
2023-01-13T01:52:06.360Z,635.47
2023-01-13T01:52:16.377Z,635.12
2023-01-13T01:52:26.361Z,635.23
2023-01-13T01:52:36.365Z,635.28
2023-01-13T01:52:46.362Z,634.97
2023-01-13T01:52:56.367Z,634.46
2023-01-13T01:53:06.367Z,635.21
2023-01-13T01:53:16.366Z,634.98
2023-01-13T01:53:26.379Z,634.82
2023-01-13T01:53:36.368Z,634.73
2023-01-13T01:53:46.366Z,634.40
2023-01-13T01:53:56.369Z,634.71
2023-01-13T01:54:06.381Z,634.68
2023-01-13T01:54:16.371Z,634.44
2023-01-13T01:54:26.384Z,634.50
2023-01-13T01:54:36.391Z,634.71
2023-01-13T01:54:46.372Z,634.67
2023-01-13T01:54:56.374Z,634.71
2023-01-13T01:55:06.381Z,634.96
2023-01-13T01:55:16.380Z,634.97
2023-01-13T01:55:26.376Z,635.35
2023-01-13T01:55:36.378Z,635.41
2023-01-13T01:55:46.377Z,635.64
2023-01-13T01:55:56.376Z,635.22
2023-01-13T01:56:06.377Z,635.38
2023-01-13T01:56:16.375Z,635.69
2023-01-13T01:56:26.383Z,635.72
2023-01-13T01:56:36.377Z,635.67
2023-01-13T01:56:46.379Z,635.85
2023-01-13T01:56:56.395Z,635.54
2023-01-13T01:57:06.382Z,635.65
2023-01-13T01:57:16.385Z,635.55
2023-01-13T01:57:26.387Z,635.65
2023-01-13T01:57:36.386Z,635.27
2023-01-13T01:57:46.396Z,635.76
2023-01-13T01:57:56.396Z,635.47
2023-01-13T01:58:06.387Z,635.58
2023-01-13T01:58:16.392Z,635.59
2023-01-13T01:58:26.388Z,635.43
2023-01-13T01:58:36.388Z,635.42
2023-01-13T01:58:46.390Z,635.53
2023-01-13T01:58:56.391Z,635.64
2023-01-13T01:59:06.391Z,635.58
2023-01-13T01:59:16.393Z,635.69
2023-01-13T01:59:26.428Z,635.51
2023-01-13T01:59:36.410Z,635.70
2023-01-13T01:59:46.401Z,635.65
2023-01-13T01:59:56.400Z,635.80
2023-01-13T02:00:06.396Z,635.21
2023-01-13T02:00:16.399Z,635.33
2023-01-13T02:00:26.406Z,635.81
2023-01-13T02:00:36.433Z,635.71
2023-01-13T02:00:46.408Z,635.65
2023-01-13T02:00:56.505Z,635.67
2023-01-13T02:01:06.553Z,635.48
2023-01-13T02:01:16.545Z,635.82
2023-01-13T02:01:26.527Z,635.78
2023-01-13T02:01:36.480Z,635.41
2023-01-13T02:01:46.554Z,635.53
2023-01-13T02:01:56.545Z,635.71
2023-01-13T02:02:06.570Z,635.50
2023-01-13T02:02:16.462Z,635.22
2023-01-13T02:02:26.412Z,635.70
2023-01-13T02:02:36.482Z,635.95
2023-01-13T02:02:46.519Z,635.98
2023-01-13T02:02:56.410Z,636.32
2023-01-13T02:03:06.412Z,635.74
2023-01-13T02:03:16.430Z,636.42
2023-01-13T02:03:26.414Z,636.14
2023-01-13T02:03:36.420Z,635.88
2023-01-13T02:03:46.418Z,636.06
2023-01-13T02:03:56.416Z,635.71
2023-01-13T02:04:06.421Z,635.66
2023-01-13T02:04:16.420Z,635.84
2023-01-13T02:04:26.419Z,635.95
2023-01-13T02:04:36.423Z,636.16
2023-01-13T02:04:46.422Z,636.00